createdAt,value
2023-02-11T00:01:31.291Z,87.88
2023-02-11T00:04:00.295Z,92.60
2023-02-11T00:06:30.560Z,83.75
2023-02-11T00:08:58.687Z,98.95
2023-02-11T00:11:30.733Z,95.72
2023-02-11T00:14:02.649Z,92.20
2023-02-11T00:16:32.010Z,100.43
2023-02-11T00:19:03.401Z,100.45
2023-02-11T00:21:31.375Z,87.57
2023-02-11T00:24:02.340Z,96.60
2023-02-11T00:26:33.954Z,97.70
2023-02-11T00:29:02.890Z,92.18
2023-02-11T00:31:32.850Z,100.38
2023-02-11T00:34:00.839Z,100.57
2023-02-11T00:36:30.427Z,96.45
2023-02-11T00:39:00.305Z,97.82
2023-02-11T00:41:29.614Z,99.25
2023-02-11T00:44:01.642Z,108.40
2023-02-11T00:46:29.726Z,105.00
2023-02-11T00:48:57.938Z,107.90
2023-02-11T00:51:28.329Z,107.55
2023-02-11T00:53:57.511Z,100.25
2023-02-11T00:56:25.317Z,94.97
2023-02-11T00:58:54.095Z,95.72
2023-02-11T01:01:21.676Z,110.78
2023-02-11T01:03:49.635Z,105.03
2023-02-11T01:06:17.510Z,103.93
2023-02-11T01:08:45.420Z,107.03
2023-02-11T01:11:18.322Z,103.55
2023-02-11T01:13:48.188Z,110.90
2023-02-11T01:16:17.263Z,101.13
2023-02-11T01:18:47.305Z,103.95
2023-02-11T01:21:15.137Z,109.28
2023-02-11T01:23:44.488Z,99.78
2023-02-11T01:26:13.315Z,111.00
2023-02-11T01:28:41.195Z,97.65
2023-02-11T01:31:08.756Z,100.22
2023-02-11T01:33:36.698Z,99.38
2023-02-11T01:36:08.713Z,101.18
2023-02-11T01:38:36.858Z,96.30
2023-02-11T01:41:11.613Z,95.50
2023-02-11T01:43:45.338Z,99.32
2023-02-11T01:46:36.896Z,86.15
2023-02-11T01:49:18.692Z,84.13
2023-02-11T01:52:22.289Z,95.28
2023-02-11T01:55:12.603Z,94.10
2023-02-11T01:57:45.479Z,91.28
2023-02-11T02:00:27.501Z,98.30
2023-02-11T02:03:00.695Z,102.22
2023-02-11T02:05:49.187Z,87.38
2023-02-11T02:08:47.136Z,95.93
2023-02-11T02:11:15.110Z,96.65
2023-02-11T02:13:42.753Z,97.00
2023-02-11T02:16:17.967Z,100.68
2023-02-11T02:19:41.431Z,96.88
2023-02-11T02:22:18.077Z,102.30
2023-02-11T02:25:10.389Z,105.00
2023-02-11T02:27:59.827Z,102.90
2023-02-11T02:30:56.194Z,101.30
2023-02-11T02:33:53.118Z,107.80
2023-02-11T02:36:32.315Z,104.07
2023-02-11T02:41:51.016Z,105.05
2023-02-11T02:44:20.136Z,102.55
2023-02-11T02:46:47.831Z,103.75
2023-02-11T02:49:17.363Z,107.78
2023-02-11T02:52:06.339Z,102.50
2023-02-11T02:57:28.024Z,105.05
2023-02-11T03:00:29.899Z,102.13
2023-02-11T03:03:24.083Z,98.72
2023-02-11T03:06:05.998Z,99.03
2023-02-11T03:08:49.328Z,102.20
2023-02-11T03:11:20.501Z,100.35
2023-02-11T03:13:49.713Z,94.75
2023-02-11T03:19:29.035Z,87.40
2023-02-11T03:21:57.894Z,94.22
2023-02-11T03:24:32.120Z,97.13
2023-02-11T03:27:17.807Z,93.28
2023-02-11T03:29:59.953Z,92.35
2023-02-11T03:32:49.467Z,98.82
2023-02-11T03:36:02.887Z,93.32
2023-02-11T03:38:36.564Z,91.43
2023-02-11T03:41:08.215Z,100.53
2023-02-11T03:43:51.861Z,104.82
2023-02-11T03:46:27.686Z,104.25
2023-02-11T03:49:02.306Z,109.38
2023-02-11T03:51:32.495Z,109.22
2023-02-11T03:54:05.840Z,99.97
2023-02-11T03:56:47.920Z,113.10
2023-02-11T03:59:15.722Z,107.72
2023-02-11T04:01:43.514Z,108.55
2023-02-11T04:04:11.401Z,110.47
2023-02-11T04:06:39.202Z,103.03
2023-02-11T04:09:07.306Z,105.13
2023-02-11T04:11:34.875Z,105.78
2023-02-11T04:14:02.629Z,105.40
2023-02-11T04:16:31.114Z,108.00
2023-02-11T04:18:58.928Z,102.97
2023-02-11T04:21:26.458Z,100.78
2023-02-11T04:23:54.330Z,104.22
2023-02-11T04:26:21.900Z,117.13
2023-02-11T04:28:49.703Z,112.32
2023-02-11T04:31:17.441Z,113.03
2023-02-11T04:33:45.312Z,112.07
2023-02-11T04:36:13.056Z,108.80
2023-02-11T04:38:40.946Z,113.47
2023-02-11T04:41:08.515Z,117.03
2023-02-11T04:43:36.319Z,112.88
2023-02-11T04:46:04.009Z,107.35
2023-02-11T04:48:32.151Z,110.75
2023-02-11T04:50:59.583Z,97.70
2023-02-11T04:53:27.583Z,89.28
2023-02-11T04:55:55.511Z,88.38
2023-02-11T04:58:24.361Z,88.80
2023-02-11T05:00:52.576Z,92.90
2023-02-11T05:03:20.475Z,95.87
2023-02-11T05:05:48.292Z,86.63
2023-02-11T05:08:16.287Z,86.57
2023-02-11T05:10:48.129Z,78.55
2023-02-11T05:13:16.044Z,83.78
2023-02-11T05:15:43.852Z,86.72
2023-02-11T05:18:11.799Z,86.10
2023-02-11T05:20:40.363Z,89.15
2023-02-11T05:23:08.557Z,88.10
2023-02-11T05:25:36.217Z,92.47
2023-02-11T05:28:05.072Z,91.53
2023-02-11T05:30:33.087Z,84.60
2023-02-11T05:33:01.118Z,83.47
2023-02-11T05:35:28.570Z,99.22
2023-02-11T05:37:56.399Z,87.20
2023-02-11T05:40:23.833Z,86.75
2023-02-11T05:42:51.642Z,81.40
2023-02-11T05:45:19.250Z,82.78
2023-02-11T05:47:47.091Z,89.50
2023-02-11T05:50:14.859Z,81.22
2023-02-11T05:52:42.727Z,94.22
2023-02-11T05:55:10.583Z,92.00
2023-02-11T05:57:38.475Z,83.53
2023-02-11T06:00:08.013Z,98.65
2023-02-11T06:02:40.752Z,93.85
2023-02-11T06:05:09.054Z,82.10
2023-02-11T06:07:36.886Z,97.20
2023-02-11T06:10:05.099Z,96.22
2023-02-11T06:12:32.938Z,100.68
2023-02-11T06:15:00.420Z,105.35
2023-02-11T06:17:32.973Z,102.72
2023-02-11T06:20:02.933Z,100.88
2023-02-11T06:22:30.904Z,111.35
2023-02-11T06:25:01.583Z,103.75
2023-02-11T06:27:30.780Z,101.53
2023-02-11T06:29:58.620Z,84.10
2023-02-11T06:32:45.642Z,83.28
2023-02-11T06:35:14.845Z,79.88
2023-02-11T06:37:42.944Z,73.50
2023-02-11T06:40:12.320Z,80.47
2023-02-11T06:42:40.540Z,76.55
2023-02-11T06:45:11.072Z,78.05
2023-02-11T06:47:40.622Z,73.55
2023-02-11T06:50:12.461Z,80.07
2023-02-11T06:52:40.736Z,75.07
2023-02-11T06:55:08.533Z,67.55
2023-02-11T06:57:36.459Z,71.07
2023-02-11T07:00:05.842Z,71.15
2023-02-11T07:02:33.917Z,81.10
2023-02-11T07:05:01.567Z,77.75
2023-02-11T07:07:30.432Z,79.70
2023-02-11T07:09:59.388Z,67.90
2023-02-11T07:12:27.406Z,64.90
2023-02-11T07:14:57.648Z,67.13
2023-02-11T07:17:25.580Z,76.85
2023-02-11T07:19:53.202Z,59.40
2023-02-11T07:22:21.047Z,58.40
2023-02-11T07:24:48.714Z,71.75
2023-02-11T07:27:16.635Z,63.38
2023-02-11T07:29:45.890Z,72.75
2023-02-11T07:34:41.767Z,73.13
2023-02-11T07:37:11.020Z,80.05
2023-02-11T07:39:38.634Z,64.40
2023-02-11T07:42:07.087Z,94.13
2023-02-11T07:44:35.177Z,110.68
2023-02-11T07:47:03.915Z,97.53
2023-02-11T07:49:31.974Z,91.78
2023-02-11T07:51:59.843Z,81.60
2023-02-11T07:54:27.342Z,71.40
2023-02-11T07:56:55.382Z,72.07
2023-02-11T07:59:24.933Z,74.75
2023-02-11T08:01:54.410Z,73.80
2023-02-11T08:04:22.052Z,71.97
2023-02-11T08:06:52.817Z,73.88
2023-02-11T08:09:20.539Z,61.60
2023-02-11T08:11:48.426Z,71.53
2023-02-11T08:14:16.303Z,62.00
2023-02-11T08:16:44.204Z,56.90
2023-02-11T08:19:15.199Z,56.47
2023-02-11T08:21:44.119Z,58.70
2023-02-11T08:24:12.473Z,45.20
2023-02-11T08:26:41.110Z,39.25
2023-02-11T08:29:13.234Z,55.17
2023-02-11T08:31:44.447Z,58.20
2023-02-11T08:34:14.490Z,54.60
2023-02-11T08:36:43.865Z,59.25
2023-02-11T08:39:22.324Z,58.08
2023-02-11T08:41:54.498Z,59.58
2023-02-11T08:44:22.962Z,56.85
2023-02-11T08:46:51.775Z,57.03
2023-02-11T08:49:20.380Z,65.97
2023-02-11T08:51:49.307Z,54.70
2023-02-11T08:54:17.084Z,62.13
2023-02-11T08:56:45.755Z,56.35
2023-02-11T08:59:15.660Z,57.10
2023-02-11T09:01:44.435Z,56.92
2023-02-11T09:04:12.388Z,60.15
2023-02-11T09:06:41.108Z,54.78
2023-02-11T09:09:13.720Z,52.22
2023-02-11T09:11:43.813Z,54.58
2023-02-11T09:14:19.950Z,60.28
2023-02-11T09:16:48.856Z,55.85
2023-02-11T09:19:17.310Z,55.83
2023-02-11T09:21:46.983Z,59.65
2023-02-11T09:24:14.992Z,62.47
2023-02-11T09:26:43.709Z,50.58
2023-02-11T09:29:13.091Z,52.83
2023-02-11T09:31:41.578Z,67.78
2023-02-11T09:34:11.181Z,59.45
2023-02-11T09:36:41.156Z,59.40
2023-02-11T09:39:14.626Z,62.40
2023-02-11T09:41:48.180Z,45.95
2023-02-11T09:44:27.590Z,67.53
2023-02-11T09:47:21.492Z,61.28
2023-02-11T09:50:01.449Z,54.38
2023-02-11T09:53:20.694Z,57.75
2023-02-11T09:55:59.756Z,61.30
2023-02-11T10:01:44.680Z,48.80
2023-02-11T10:04:50.879Z,50.38
2023-02-11T10:08:00.945Z,57.00
2023-02-11T10:11:03.443Z,53.05
2023-02-11T10:13:31.625Z,48.30
2023-02-11T10:16:30.050Z,45.17
2023-02-11T10:19:38.012Z,54.13
2023-02-11T10:22:20.902Z,44.38
2023-02-11T10:24:58.506Z,52.85
2023-02-11T10:27:36.552Z,52.00
2023-02-11T10:30:27.437Z,49.58
2023-02-11T10:33:32.973Z,56.47
2023-02-11T10:36:00.899Z,55.70
2023-02-11T10:38:34.760Z,43.40
2023-02-11T10:41:02.595Z,55.72
2023-02-11T10:43:32.365Z,51.63
2023-02-11T10:46:04.970Z,51.20
2023-02-11T10:48:46.762Z,48.50
2023-02-11T10:51:29.543Z,53.25
2023-02-11T10:54:08.487Z,53.88
2023-02-11T10:56:50.287Z,66.80
2023-02-11T10:59:34.143Z,57.22
2023-02-11T11:02:34.732Z,53.97
2023-02-11T11:05:30.211Z,49.92
2023-02-11T11:08:03.319Z,44.58
2023-02-11T11:10:45.089Z,40.25
2023-02-11T11:13:38.721Z,40.47
2023-02-11T11:16:13.474Z,46.67
2023-02-11T11:18:50.223Z,44.28
2023-02-11T11:21:43.603Z,40.40
2023-02-11T11:24:40.362Z,44.88
2023-02-11T11:27:21.929Z,49.55
2023-02-11T11:29:56.407Z,40.13
2023-02-11T11:32:33.818Z,41.92
2023-02-11T11:35:09.721Z,36.95
2023-02-11T11:37:38.947Z,42.97
2023-02-11T11:40:29.823Z,36.63
2023-02-11T11:43:16.848Z,40.08
2023-02-11T11:46:00.307Z,33.15
2023-02-11T11:48:50.966Z,35.28
2023-02-11T11:51:19.502Z,34.08
2023-02-11T11:54:12.850Z,32.80
2023-02-11T11:56:59.097Z,30.10
2023-02-11T11:59:28.556Z,32.88
2023-02-11T12:02:34.435Z,35.03
2023-02-11T12:05:23.947Z,34.38
2023-02-11T12:08:29.951Z,35.97
2023-02-11T12:11:18.100Z,36.40
2023-02-11T12:14:47.446Z,48.50
2023-02-11T12:17:31.645Z,37.33
2023-02-11T12:20:20.353Z,38.83
2023-02-11T12:23:19.106Z,48.25
2023-02-11T12:26:13.153Z,39.70
2023-02-11T12:29:12.899Z,47.20
2023-02-11T12:34:27.268Z,50.10
2023-02-11T12:36:57.485Z,49.30
2023-02-11T12:39:51.562Z,46.38
2023-02-11T12:43:02.627Z,50.90
2023-02-11T12:46:08.950Z,57.97
2023-02-11T12:49:18.240Z,51.45
2023-02-11T12:51:49.450Z,49.28
2023-02-11T12:55:01.134Z,44.13
2023-02-11T12:57:34.554Z,47.17
2023-02-11T13:00:25.425Z,45.65
2023-02-11T13:03:22.538Z,46.80
2023-02-11T13:05:55.521Z,39.38
2023-02-11T13:09:02.902Z,48.28
2023-02-11T13:11:40.995Z,42.40
2023-02-11T13:14:35.361Z,39.90
2023-02-11T13:17:16.184Z,40.40
2023-02-11T13:19:58.288Z,43.53
2023-02-11T13:22:47.141Z,47.38
2023-02-11T13:25:30.054Z,39.28
2023-02-11T13:28:29.249Z,48.70
2023-02-11T13:31:03.078Z,45.15
2023-02-11T13:33:39.573Z,40.80
2023-02-11T13:36:07.800Z,40.28
2023-02-11T13:38:36.794Z,40.80
2023-02-11T13:41:23.612Z,54.05
2023-02-11T13:44:11.089Z,52.47
2023-02-11T13:47:05.023Z,46.70
2023-02-11T13:49:41.166Z,48.80
2023-02-11T13:52:35.022Z,40.10
2023-02-11T13:55:23.406Z,46.15
2023-02-11T13:58:06.421Z,39.70
2023-02-11T14:00:39.201Z,44.83
2023-02-11T14:03:31.615Z,41.70
2023-02-11T14:06:29.990Z,41.92
2023-02-11T14:09:09.728Z,44.80
2023-02-11T14:11:45.123Z,44.20
2023-02-11T14:14:28.952Z,39.25
2023-02-11T14:17:02.037Z,41.20
2023-02-11T14:19:37.238Z,41.78
2023-02-11T14:22:06.672Z,42.70
2023-02-11T14:24:34.971Z,38.72
2023-02-11T14:27:29.484Z,37.28
2023-02-11T14:30:30.965Z,44.05
2023-02-11T14:33:26.456Z,38.67
2023-02-11T14:36:20.573Z,35.15
2023-02-11T14:39:15.272Z,34.65
2023-02-11T14:41:47.740Z,40.88
2023-02-11T14:44:30.076Z,39.40
2023-02-11T14:46:58.908Z,38.95
2023-02-11T14:49:39.337Z,47.88
2023-02-11T14:52:41.799Z,35.80
2023-02-11T14:55:34.631Z,39.65
2023-02-11T14:58:30.982Z,43.03
2023-02-11T15:01:09.074Z,44.65
2023-02-11T15:03:40.866Z,46.60
2023-02-11T15:06:25.470Z,46.63
2023-02-11T15:09:01.059Z,44.25
2023-02-11T15:11:35.252Z,38.90
2023-02-11T15:14:31.606Z,59.10
2023-02-11T15:17:04.732Z,58.38
2023-02-11T15:19:36.100Z,56.00
2023-02-11T15:22:21.973Z,66.88
2023-02-11T15:25:16.831Z,48.17
2023-02-11T15:27:48.765Z,45.00
2023-02-11T15:30:22.878Z,50.67
2023-02-11T15:32:51.196Z,52.53
2023-02-11T15:35:19.570Z,53.67
2023-02-11T15:37:49.573Z,54.83
2023-02-11T15:40:28.046Z,51.33
2023-02-11T15:43:09.383Z,56.05
2023-02-11T15:45:40.388Z,48.25
2023-02-11T15:48:21.115Z,51.45
2023-02-11T15:50:59.078Z,52.33
2023-02-11T15:53:42.419Z,61.72
2023-02-11T15:56:19.014Z,55.72
2023-02-11T15:58:49.530Z,54.50
2023-02-11T16:01:17.690Z,47.83
2023-02-11T16:03:50.623Z,52.15
2023-02-11T16:06:35.816Z,46.95
2023-02-11T16:09:10.265Z,56.47
2023-02-11T16:11:58.276Z,58.50
2023-02-11T16:14:31.824Z,55.58
2023-02-11T16:17:10.262Z,60.38
2023-02-11T16:19:46.663Z,63.38
2023-02-11T16:22:28.639Z,57.72
2023-02-11T16:24:59.848Z,62.00
2023-02-11T16:27:41.449Z,60.95
2023-02-11T16:30:34.676Z,62.58
2023-02-11T16:33:06.027Z,57.92
2023-02-11T16:35:33.685Z,59.30
2023-02-11T16:38:01.586Z,64.68
2023-02-11T16:40:29.305Z,61.15
2023-02-11T16:42:59.869Z,70.00
2023-02-11T16:45:27.498Z,65.57
2023-02-11T16:47:55.499Z,71.45
2023-02-11T16:50:25.551Z,65.97
2023-02-11T16:52:53.704Z,77.68
2023-02-11T16:55:22.301Z,93.72
2023-02-11T16:57:50.398Z,86.30
2023-02-11T17:00:18.578Z,74.90
2023-02-11T17:02:46.647Z,79.65
2023-02-11T17:05:25.962Z,88.00
2023-02-11T17:07:53.986Z,120.78
2023-02-11T17:10:25.582Z,123.35
2023-02-11T17:12:53.663Z,146.73
2023-02-11T17:15:23.663Z,107.82
2023-02-11T17:17:51.522Z,130.43
2023-02-11T17:20:20.593Z,105.25
2023-02-11T17:22:48.851Z,120.75
2023-02-11T17:25:17.591Z,131.77
2023-02-11T17:27:45.805Z,89.40
2023-02-11T17:30:16.734Z,80.28
2023-02-11T17:32:44.663Z,69.38
2023-02-11T17:35:12.787Z,73.82
2023-02-11T17:37:41.418Z,69.55
2023-02-11T17:40:10.518Z,70.85
2023-02-11T17:42:38.805Z,88.75
2023-02-11T17:45:07.576Z,96.32
2023-02-11T17:47:35.672Z,83.07
2023-02-11T17:50:03.810Z,84.25
2023-02-11T17:52:31.730Z,78.43
2023-02-11T17:54:59.379Z,78.00
2023-02-11T17:57:27.236Z,75.38
2023-02-11T17:59:54.885Z,96.13
2023-02-11T18:02:22.889Z,84.95
2023-02-11T18:04:52.327Z,104.80
2023-02-11T18:07:20.419Z,103.57
2023-02-11T18:09:47.903Z,79.03
2023-02-11T18:12:17.946Z,66.35
2023-02-11T18:14:45.367Z,67.10
2023-02-11T18:17:13.239Z,65.32
2023-02-11T18:19:40.705Z,74.97
2023-02-11T18:22:09.764Z,66.50
2023-02-11T18:24:37.338Z,78.17
2023-02-11T18:27:05.547Z,75.68
2023-02-11T18:29:33.474Z,63.53
2023-02-11T18:32:01.570Z,78.95
2023-02-11T18:34:29.328Z,81.68
2023-02-11T18:36:57.189Z,76.65
2023-02-11T18:39:26.480Z,82.88
2023-02-11T18:41:58.990Z,78.35
2023-02-11T18:44:27.742Z,70.93
2023-02-11T18:46:55.945Z,73.70
2023-02-11T18:49:23.595Z,80.82
2023-02-11T18:51:52.334Z,74.25
2023-02-11T18:54:20.109Z,73.35
2023-02-11T18:56:47.998Z,74.38
2023-02-11T18:59:15.567Z,71.53
2023-02-11T19:01:46.893Z,74.78
2023-02-11T19:04:19.896Z,74.53
2023-02-11T19:06:52.359Z,64.75
2023-02-11T19:09:20.906Z,71.25
2023-02-11T19:11:50.500Z,92.20
2023-02-11T19:14:28.008Z,67.63
2023-02-11T19:16:59.670Z,71.40
2023-02-11T19:19:31.250Z,80.18
2023-02-11T19:22:01.026Z,72.53
2023-02-11T19:24:30.490Z,81.47
2023-02-11T19:27:03.156Z,78.63
2023-02-11T19:29:35.372Z,75.10
2023-02-11T19:32:06.378Z,80.22
2023-02-11T19:34:41.152Z,79.82
2023-02-11T19:37:12.877Z,81.78
2023-02-11T19:39:42.565Z,87.80
2023-02-11T19:42:11.259Z,83.07
2023-02-11T19:44:38.977Z,76.65
2023-02-11T19:47:07.140Z,81.43
2023-02-11T19:49:34.672Z,87.60
2023-02-11T19:52:02.579Z,86.35
2023-02-11T19:54:30.261Z,83.22
2023-02-11T19:56:59.155Z,75.63
2023-02-11T19:59:26.844Z,80.43
2023-02-11T20:01:54.898Z,82.25
2023-02-11T20:04:28.910Z,79.70
2023-02-11T20:07:16.658Z,87.25
2023-02-11T20:09:47.280Z,82.80
2023-02-11T20:12:20.204Z,77.28
2023-02-11T20:14:56.269Z,76.35
2023-02-11T20:17:33.481Z,79.50
2023-02-11T20:20:02.828Z,76.72
2023-02-11T20:22:30.714Z,85.97
2023-02-11T20:24:58.266Z,77.53
2023-02-11T20:27:29.101Z,80.13
2023-02-11T20:29:56.777Z,71.18
2023-02-11T20:32:24.653Z,83.25
2023-02-11T20:34:52.700Z,83.60
2023-02-11T20:37:20.607Z,81.63
2023-02-11T20:39:48.314Z,96.80
2023-02-11T20:42:16.084Z,83.18
2023-02-11T20:44:43.600Z,91.68
2023-02-11T20:47:12.596Z,88.63
2023-02-11T20:49:40.261Z,80.63
2023-02-11T20:52:08.355Z,84.75
2023-02-11T20:54:35.867Z,79.32
2023-02-11T20:57:03.823Z,80.07
2023-02-11T20:59:31.707Z,76.22
2023-02-11T21:02:00.144Z,77.35
2023-02-11T21:04:32.727Z,81.18
2023-02-11T21:07:02.409Z,72.38
2023-02-11T21:09:32.247Z,78.50
2023-02-11T21:12:00.742Z,77.10
2023-02-11T21:14:29.165Z,80.30
2023-02-11T21:16:57.673Z,75.78
2023-02-11T21:19:25.503Z,82.95
2023-02-11T21:21:55.241Z,84.40
2023-02-11T21:24:24.029Z,81.85
2023-02-11T21:26:52.089Z,83.22
2023-02-11T21:29:19.658Z,79.03
2023-02-11T21:31:47.777Z,71.45
2023-02-11T21:34:16.328Z,73.60
2023-02-11T21:36:45.294Z,72.73
2023-02-11T21:39:13.819Z,66.63
2023-02-11T21:41:41.725Z,64.57
2023-02-11T21:44:09.521Z,66.22
2023-02-11T21:46:37.374Z,69.63
2023-02-11T21:49:05.649Z,64.68
2023-02-11T21:51:33.487Z,74.30
2023-02-11T21:54:02.796Z,66.43
2023-02-11T21:56:33.405Z,54.03
2023-02-11T21:59:01.220Z,51.90
2023-02-11T22:01:35.333Z,61.50
2023-02-11T22:04:03.356Z,71.75
2023-02-11T22:06:34.233Z,64.07
2023-02-11T22:09:07.952Z,72.40
2023-02-11T22:11:36.314Z,59.63
2023-02-11T22:14:04.481Z,65.80
2023-02-11T22:16:33.081Z,61.58
2023-02-11T22:19:02.565Z,65.80
2023-02-11T22:21:30.945Z,59.10
2023-02-11T22:23:58.691Z,62.20
2023-02-11T22:26:28.509Z,60.55
2023-02-11T22:31:32.209Z,64.20
2023-02-11T22:34:01.305Z,63.10
2023-02-11T22:36:41.326Z,55.80
2023-02-11T22:39:15.944Z,66.85
2023-02-11T22:41:46.408Z,56.33
2023-02-11T22:44:17.343Z,56.42
2023-02-11T22:46:45.279Z,58.17
2023-02-11T22:49:15.543Z,54.05
2023-02-11T22:51:44.361Z,54.78
2023-02-11T22:54:16.316Z,58.25
2023-02-11T22:56:45.733Z,55.00
2023-02-11T22:59:15.401Z,56.80
2023-02-11T23:01:43.938Z,57.00
2023-02-11T23:04:14.735Z,59.40
2023-02-11T23:06:43.295Z,59.65
2023-02-11T23:09:12.601Z,53.88
2023-02-11T23:11:41.619Z,52.75
2023-02-11T23:14:12.137Z,56.35
2023-02-11T23:16:40.452Z,58.17
2023-02-11T23:19:10.478Z,55.63
2023-02-11T23:21:39.763Z,45.75
2023-02-11T23:24:14.980Z,52.55
2023-02-11T23:26:44.440Z,56.40
2023-02-11T23:29:12.796Z,55.83
2023-02-11T23:31:45.282Z,46.92
2023-02-11T23:34:18.500Z,55.15
2023-02-11T23:36:46.425Z,53.47
2023-02-11T23:39:15.949Z,55.53
2023-02-11T23:41:44.558Z,54.03
2023-02-11T23:44:12.487Z,54.85
2023-02-11T23:46:40.337Z,54.58
2023-02-11T23:49:07.949Z,54.88
2023-02-11T23:51:35.837Z,64.25
2023-02-11T23:54:03.520Z,55.15
2023-02-11T23:56:31.531Z,56.63
2023-02-11T23:58:59.681Z,56.88
